createdAt,value
2022-12-14T00:01:34.613Z,42.80
2022-12-14T00:04:02.364Z,34.30
2022-12-14T00:06:29.778Z,34.50
2022-12-14T00:08:57.515Z,40.80
2022-12-14T00:11:24.909Z,40.90
2022-12-14T00:13:52.283Z,47.20
2022-12-14T00:16:19.928Z,37.10
2022-12-14T00:18:47.712Z,37.50
2022-12-14T00:21:15.421Z,33.50
2022-12-14T00:23:43.087Z,38.40
2022-12-14T00:26:10.742Z,43.20
2022-12-14T00:28:38.449Z,40.50
2022-12-14T00:31:06.153Z,40.50
2022-12-14T00:33:33.936Z,41.70
2022-12-14T00:36:01.665Z,41.40
2022-12-14T00:38:29.574Z,41.70
2022-12-14T00:40:57.485Z,41.60
2022-12-14T00:43:24.920Z,46.10
2022-12-14T00:45:52.341Z,43.10
2022-12-14T00:48:19.752Z,43.00
2022-12-14T00:50:48.779Z,42.80
2022-12-14T00:53:16.348Z,45.40
2022-12-14T00:55:43.739Z,39.60
2022-12-14T00:58:11.183Z,42.80
2022-12-14T01:00:38.722Z,40.90
2022-12-14T01:03:06.194Z,42.70
2022-12-14T01:05:33.573Z,44.00
2022-12-14T01:08:01.272Z,42.10
2022-12-14T01:10:28.730Z,46.00
2022-12-14T01:12:56.138Z,45.20
2022-12-14T01:15:23.578Z,44.50
2022-12-14T01:17:50.970Z,44.90
2022-12-14T01:20:18.628Z,49.10
2022-12-14T01:22:46.185Z,49.70
2022-12-14T01:25:13.587Z,49.70
2022-12-14T01:27:41.006Z,47.20
2022-12-14T01:30:08.571Z,44.80
2022-12-14T01:32:35.985Z,48.60
2022-12-14T01:35:03.553Z,43.80
2022-12-14T01:37:31.039Z,47.20
2022-12-14T01:39:58.460Z,46.60
2022-12-14T01:42:25.843Z,48.60
2022-12-14T01:44:53.227Z,47.00
2022-12-14T01:47:20.692Z,45.20
2022-12-14T01:49:48.547Z,46.60
2022-12-14T01:52:16.311Z,43.20
2022-12-14T01:54:43.755Z,39.60
2022-12-14T01:57:16.751Z,40.60
2022-12-14T01:59:44.280Z,42.40
2022-12-14T02:02:11.871Z,41.70
2022-12-14T02:04:39.395Z,42.40
2022-12-14T02:07:06.825Z,39.80
2022-12-14T02:09:34.246Z,39.70
2022-12-14T02:12:01.991Z,38.50
2022-12-14T02:14:29.515Z,40.40
2022-12-14T02:16:57.058Z,41.20
2022-12-14T02:19:24.437Z,37.70
2022-12-14T02:21:51.952Z,34.50
2022-12-14T02:24:19.679Z,42.50
2022-12-14T02:26:47.343Z,35.80
2022-12-14T02:29:14.888Z,35.60
2022-12-14T02:31:42.533Z,35.30
2022-12-14T02:34:09.966Z,37.10
2022-12-14T02:36:37.512Z,33.60
2022-12-14T02:39:05.071Z,36.50
2022-12-14T02:41:32.719Z,38.60
2022-12-14T02:44:00.294Z,39.10
2022-12-14T02:46:27.695Z,38.20
2022-12-14T02:48:55.106Z,39.90
2022-12-14T02:51:22.495Z,41.80
2022-12-14T02:53:49.927Z,42.40
2022-12-14T02:56:17.566Z,41.00
2022-12-14T02:58:45.001Z,47.40
2022-12-14T03:01:12.541Z,42.50
2022-12-14T03:03:40.214Z,41.10
2022-12-14T03:06:07.737Z,39.80
2022-12-14T03:08:35.137Z,39.50
2022-12-14T03:11:02.606Z,36.40
2022-12-14T03:13:30.578Z,42.40
2022-12-14T03:15:58.365Z,38.40
2022-12-14T03:18:25.804Z,36.80
2022-12-14T03:20:53.315Z,35.40
2022-12-14T03:23:20.861Z,34.20
2022-12-14T03:25:48.762Z,34.80
2022-12-14T03:28:16.440Z,31.00
2022-12-14T03:31:00.081Z,32.00
2022-12-14T03:33:28.945Z,34.40
2022-12-14T03:35:56.581Z,34.30
2022-12-14T03:38:24.261Z,29.10
2022-12-14T03:40:51.680Z,30.00
2022-12-14T03:43:19.116Z,29.20
2022-12-14T03:45:46.557Z,26.70
2022-12-14T03:48:13.994Z,27.70
2022-12-14T03:50:41.399Z,28.30
2022-12-14T03:53:08.894Z,30.70
2022-12-14T03:55:36.835Z,26.00
2022-12-14T03:58:04.353Z,29.30
2022-12-14T04:00:31.749Z,22.70
2022-12-14T04:02:59.534Z,22.00
2022-12-14T04:05:27.233Z,25.30
2022-12-14T04:07:54.886Z,22.00
2022-12-14T04:10:22.481Z,23.00
2022-12-14T04:12:51.651Z,23.20
2022-12-14T04:15:19.588Z,25.20
2022-12-14T04:17:47.297Z,25.70
2022-12-14T04:20:15.184Z,23.30
2022-12-14T04:22:42.905Z,22.80
2022-12-14T04:25:10.288Z,23.50
2022-12-14T04:27:39.056Z,22.10
2022-12-14T04:30:06.969Z,24.90
2022-12-14T04:32:34.590Z,24.80
2022-12-14T04:35:02.002Z,23.40
2022-12-14T04:37:29.883Z,23.80
2022-12-14T04:39:57.511Z,24.60
2022-12-14T04:42:24.896Z,22.10
2022-12-14T04:44:52.534Z,23.50
2022-12-14T04:47:19.959Z,21.20
2022-12-14T04:49:49.172Z,22.70
2022-12-14T04:52:17.195Z,23.00
2022-12-14T04:54:45.175Z,23.40
2022-12-14T04:57:18.836Z,23.50
2022-12-14T04:59:46.640Z,20.60
2022-12-14T05:02:14.195Z,22.40
2022-12-14T05:04:41.823Z,22.00
2022-12-14T05:07:09.450Z,22.30
2022-12-14T05:09:36.875Z,20.80
2022-12-14T05:12:05.563Z,23.70
2022-12-14T05:14:34.908Z,24.40
2022-12-14T05:17:08.155Z,24.20
2022-12-14T05:19:37.024Z,27.70
2022-12-14T05:22:04.555Z,25.20
2022-12-14T05:24:32.290Z,24.40
2022-12-14T05:27:00.202Z,25.90
2022-12-14T05:29:27.836Z,26.10
2022-12-14T05:31:55.459Z,24.40
2022-12-14T05:34:23.406Z,24.30
2022-12-14T05:36:50.970Z,22.00
2022-12-14T05:39:18.642Z,24.20
2022-12-14T05:41:46.024Z,26.20
2022-12-14T05:44:13.408Z,24.60
2022-12-14T05:46:40.813Z,25.00
2022-12-14T05:49:08.187Z,25.10
2022-12-14T05:51:35.611Z,26.60
2022-12-14T05:54:03.240Z,24.10
2022-12-14T05:56:31.518Z,24.80
2022-12-14T05:59:02.567Z,25.80
2022-12-14T06:01:30.304Z,26.00
2022-12-14T06:03:57.841Z,25.30
2022-12-14T06:06:25.239Z,26.10
2022-12-14T06:08:52.756Z,26.70
2022-12-14T06:11:20.190Z,26.90
2022-12-14T06:13:47.613Z,27.40
2022-12-14T06:16:15.040Z,26.40
2022-12-14T06:18:42.464Z,25.00
2022-12-14T06:21:09.901Z,24.40
2022-12-14T06:23:37.410Z,26.90
2022-12-14T06:26:04.926Z,27.20
2022-12-14T06:28:32.468Z,27.60
2022-12-14T06:31:00.029Z,27.00
2022-12-14T06:33:28.521Z,23.50
2022-12-14T06:35:56.299Z,25.10
2022-12-14T06:38:23.740Z,24.80
2022-12-14T06:40:51.176Z,22.30
2022-12-14T06:43:18.571Z,21.70
2022-12-14T06:45:45.991Z,23.80
2022-12-14T06:48:13.420Z,22.70
2022-12-14T06:50:40.890Z,22.30
2022-12-14T06:53:08.289Z,22.30
2022-12-14T06:55:35.912Z,24.10
2022-12-14T06:58:04.449Z,21.70
2022-12-14T07:00:31.918Z,20.20
2022-12-14T07:02:59.690Z,20.70
2022-12-14T07:05:27.519Z,19.10
2022-12-14T07:07:54.970Z,19.90
2022-12-14T07:10:22.595Z,19.10
2022-12-14T07:12:49.973Z,19.60
2022-12-14T07:15:17.761Z,20.50
2022-12-14T07:17:45.144Z,21.30
2022-12-14T07:20:12.673Z,21.30
2022-12-14T07:22:40.210Z,21.20
2022-12-14T07:25:07.789Z,22.40
2022-12-14T07:27:35.186Z,23.90
2022-12-14T07:30:02.980Z,22.10
2022-12-14T07:32:30.394Z,20.10
2022-12-14T07:34:57.817Z,23.90
2022-12-14T07:37:25.229Z,23.20
2022-12-14T07:39:52.620Z,24.70
2022-12-14T07:42:20.296Z,22.70
2022-12-14T07:44:47.753Z,24.40
2022-12-14T07:47:16.805Z,20.40
2022-12-14T07:49:44.343Z,19.30
2022-12-14T07:52:11.975Z,18.20
2022-12-14T07:54:39.353Z,15.80
2022-12-14T07:57:06.739Z,14.60
2022-12-14T07:59:34.380Z,15.80
2022-12-14T08:02:01.974Z,17.30
2022-12-14T08:04:29.502Z,14.30
2022-12-14T08:08:20.503Z,14.50
2022-12-14T08:10:49.060Z,15.50
2022-12-14T08:13:16.723Z,18.40
2022-12-14T08:15:44.761Z,16.30
2022-12-14T08:18:12.733Z,15.40
2022-12-14T08:20:40.377Z,19.40
2022-12-14T08:23:08.288Z,16.90
2022-12-14T08:25:36.259Z,19.20
2022-12-14T08:28:04.100Z,13.10
2022-12-14T08:30:32.068Z,17.10
2022-12-14T08:32:59.863Z,17.90
2022-12-14T08:35:27.670Z,16.10
2022-12-14T08:37:55.624Z,15.10
2022-12-14T08:40:23.288Z,13.10
2022-12-14T08:42:50.876Z,10.60
2022-12-14T08:45:18.763Z,16.10
2022-12-14T08:47:46.398Z,17.20
2022-12-14T08:50:14.034Z,14.10
2022-12-14T08:52:41.590Z,15.80
2022-12-14T08:55:09.153Z,14.00
2022-12-14T08:57:36.740Z,16.50
2022-12-14T09:00:04.754Z,12.80
2022-12-14T09:02:32.601Z,17.20
2022-12-14T09:05:00.300Z,7.70
2022-12-14T09:07:29.369Z,13.30
2022-12-14T09:09:57.255Z,17.20
2022-12-14T09:12:25.208Z,22.90
2022-12-14T09:14:52.760Z,18.40
2022-12-14T09:17:20.677Z,16.60
2022-12-14T09:19:48.247Z,18.50
2022-12-14T09:22:15.948Z,16.40
2022-12-14T09:24:43.561Z,15.10
2022-12-14T09:27:11.144Z,15.00
2022-12-14T09:29:38.984Z,13.00
2022-12-14T09:32:06.617Z,11.80
2022-12-14T09:34:34.267Z,10.90
2022-12-14T09:37:01.917Z,11.40
2022-12-14T09:39:30.229Z,13.30
2022-12-14T09:42:08.867Z,14.80
2022-12-14T09:45:06.115Z,13.20
2022-12-14T09:47:52.800Z,10.20
2022-12-14T09:50:22.493Z,14.60
2022-12-14T09:52:59.396Z,12.80
2022-12-14T09:58:09.717Z,9.90
2022-12-14T10:00:41.071Z,10.30
2022-12-14T10:03:34.422Z,13.20
2022-12-14T10:06:19.304Z,17.40
2022-12-14T10:09:14.286Z,19.60
2022-12-14T10:11:59.489Z,11.60
2022-12-14T10:14:58.669Z,11.50
2022-12-14T10:17:35.439Z,8.70
2022-12-14T10:22:44.243Z,11.70
2022-12-14T10:25:33.740Z,8.70
2022-12-14T10:28:12.308Z,9.40
2022-12-14T10:30:44.595Z,13.70
2022-12-14T10:33:45.785Z,11.90
2022-12-14T10:36:30.160Z,12.90
2022-12-14T10:39:06.645Z,11.80
2022-12-14T10:41:49.630Z,10.70
2022-12-14T10:44:29.468Z,12.40
2022-12-14T10:47:06.119Z,9.80
2022-12-14T10:52:21.398Z,9.70
2022-12-14T10:54:56.890Z,7.50
2022-12-14T10:57:26.687Z,7.90
2022-12-14T11:00:10.905Z,7.50
2022-12-14T11:02:42.645Z,10.60
2022-12-14T11:05:41.033Z,9.70
2022-12-14T11:08:09.645Z,12.10
2022-12-14T11:10:37.653Z,12.70
2022-12-14T11:13:18.935Z,11.50
2022-12-14T11:15:51.732Z,10.80
2022-12-14T11:18:19.364Z,8.80
2022-12-14T11:21:05.343Z,14.30
2022-12-14T11:23:39.712Z,15.20
2022-12-14T11:26:21.020Z,14.10
2022-12-14T11:28:52.260Z,17.00
2022-12-14T11:31:20.166Z,12.50
2022-12-14T11:33:49.974Z,11.50
2022-12-14T11:36:26.525Z,13.60
2022-12-14T11:38:55.889Z,11.90
2022-12-14T11:41:23.998Z,8.50
2022-12-14T11:44:20.231Z,15.50
2022-12-14T11:47:20.302Z,13.80
2022-12-14T11:49:54.196Z,14.70
2022-12-14T11:52:24.671Z,13.50
2022-12-14T11:54:52.189Z,16.00
2022-12-14T11:57:31.079Z,15.50
2022-12-14T12:00:01.748Z,16.00
2022-12-14T12:05:05.119Z,13.20
2022-12-14T12:07:37.794Z,11.40
2022-12-14T12:10:16.265Z,12.80
2022-12-14T12:13:00.737Z,8.50
2022-12-14T12:15:41.095Z,9.00
2022-12-14T12:18:16.909Z,10.50
2022-12-14T12:20:54.188Z,13.90
2022-12-14T12:23:30.329Z,14.80
2022-12-14T12:26:00.535Z,13.10
2022-12-14T12:28:34.902Z,15.80
2022-12-14T12:31:11.220Z,10.60
2022-12-14T12:33:48.735Z,15.10
2022-12-14T12:36:23.521Z,16.10
2022-12-14T12:39:04.513Z,13.40
2022-12-14T12:41:38.316Z,16.10
2022-12-14T12:44:22.031Z,11.10
2022-12-14T12:49:50.151Z,10.40
2022-12-14T12:52:27.367Z,15.50
2022-12-14T12:55:01.991Z,12.90
2022-12-14T12:57:36.109Z,10.80
2022-12-14T13:00:05.106Z,13.50
2022-12-14T13:02:42.252Z,14.30
2022-12-14T13:05:45.019Z,14.40
2022-12-14T13:08:13.321Z,12.80
2022-12-14T13:11:02.400Z,9.70
2022-12-14T13:13:34.996Z,9.90
2022-12-14T13:16:26.285Z,12.30
2022-12-14T13:19:18.960Z,13.50
2022-12-14T13:21:52.209Z,15.00
2022-12-14T13:24:22.032Z,15.10
2022-12-14T13:27:04.129Z,13.50
2022-12-14T13:29:49.749Z,10.20
2022-12-14T13:32:51.635Z,15.40
2022-12-14T13:38:34.348Z,7.50
2022-12-14T13:41:29.837Z,13.70
2022-12-14T13:44:09.435Z,12.50
2022-12-14T13:46:37.623Z,9.90
2022-12-14T13:49:14.653Z,13.30
2022-12-14T13:51:47.540Z,17.10
2022-12-14T13:54:35.416Z,13.50
2022-12-14T13:57:11.322Z,13.80
2022-12-14T13:59:45.543Z,13.20
2022-12-14T14:02:31.480Z,14.20
2022-12-14T14:05:14.634Z,5.20
2022-12-14T14:08:01.449Z,15.40
2022-12-14T14:10:39.380Z,13.90
2022-12-14T14:13:28.772Z,13.40
2022-12-14T14:16:27.461Z,19.40
2022-12-14T14:18:57.029Z,17.70
2022-12-14T14:22:06.231Z,15.50
2022-12-14T14:25:09.611Z,9.20
2022-12-14T14:27:39.487Z,16.10
2022-12-14T14:30:22.141Z,10.60
2022-12-14T14:32:50.450Z,14.50
2022-12-14T14:35:27.862Z,20.50
2022-12-14T14:38:30.955Z,14.00
2022-12-14T14:41:18.576Z,10.10
2022-12-14T14:43:51.756Z,6.80
2022-12-14T14:46:31.427Z,15.90
2022-12-14T14:49:00.596Z,14.10
2022-12-14T14:51:32.675Z,20.90
2022-12-14T14:54:56.180Z,21.40
2022-12-14T14:57:55.018Z,11.70
2022-12-14T15:00:22.928Z,11.90
2022-12-14T15:02:53.522Z,17.90
2022-12-14T15:05:43.365Z,17.30
2022-12-14T15:08:20.042Z,21.80
2022-12-14T15:10:50.347Z,18.40
2022-12-14T15:13:25.576Z,14.00
2022-12-14T15:15:54.045Z,17.10
2022-12-14T15:18:31.156Z,16.10
2022-12-14T15:23:53.810Z,11.80
2022-12-14T15:26:26.831Z,7.80
2022-12-14T15:28:58.707Z,10.10
2022-12-14T15:31:36.062Z,14.40
2022-12-14T15:34:04.727Z,16.60
2022-12-14T15:36:35.954Z,13.90
2022-12-14T15:39:05.045Z,17.10
2022-12-14T15:41:33.701Z,7.70
2022-12-14T15:44:01.713Z,10.50
2022-12-14T15:46:36.301Z,14.50
2022-12-14T15:49:06.572Z,15.40
2022-12-14T15:51:40.412Z,9.20
2022-12-14T15:54:18.328Z,9.80
2022-12-14T15:56:53.180Z,14.60
2022-12-14T15:59:25.095Z,15.80
2022-12-14T16:02:06.589Z,15.80
2022-12-14T16:04:37.022Z,17.50
2022-12-14T16:07:15.022Z,17.70
2022-12-14T16:09:50.234Z,16.50
2022-12-14T16:12:27.362Z,16.70
2022-12-14T16:14:58.398Z,16.50
2022-12-14T16:17:35.976Z,15.30
2022-12-14T16:20:18.775Z,15.90
2022-12-14T16:22:58.972Z,13.80
2022-12-14T16:25:27.313Z,12.20
2022-12-14T16:27:57.232Z,13.50
2022-12-14T16:30:30.644Z,9.90
2022-12-14T16:33:17.694Z,15.60
2022-12-14T16:35:47.898Z,18.00
2022-12-14T16:38:18.531Z,16.20
2022-12-14T16:40:56.214Z,15.70
2022-12-14T16:43:39.798Z,15.20
2022-12-14T16:46:11.856Z,19.10
2022-12-14T16:48:45.522Z,19.30
2022-12-14T16:51:37.962Z,16.00
2022-12-14T16:54:24.137Z,15.90
2022-12-14T16:56:57.396Z,10.90
2022-12-14T16:59:38.564Z,16.30
2022-12-14T17:02:35.955Z,15.60
2022-12-14T17:05:13.183Z,17.80
2022-12-14T17:07:41.628Z,19.30
2022-12-14T17:10:21.661Z,18.50
2022-12-14T17:12:51.408Z,19.80
2022-12-14T17:15:22.000Z,21.20
2022-12-14T17:17:53.267Z,18.80
2022-12-14T17:20:25.308Z,20.00
2022-12-14T17:22:55.816Z,26.90
2022-12-14T17:25:25.183Z,24.80
2022-12-14T17:27:54.877Z,19.50
2022-12-14T17:30:26.676Z,19.60
2022-12-14T17:32:55.667Z,19.60
2022-12-14T17:35:29.486Z,22.50
2022-12-14T17:37:58.504Z,21.50
2022-12-14T17:40:27.846Z,16.40
2022-12-14T17:42:58.614Z,16.60
2022-12-14T17:45:29.885Z,17.50
2022-12-14T17:47:58.105Z,21.80
2022-12-14T17:50:26.143Z,21.40
2022-12-14T17:52:54.247Z,16.60
2022-12-14T17:55:24.868Z,13.10
2022-12-14T17:57:54.105Z,7.70
2022-12-14T18:00:29.299Z,14.00
2022-12-14T18:03:05.602Z,20.40
2022-12-14T18:05:33.824Z,9.90
2022-12-14T18:08:02.521Z,21.00
2022-12-14T18:10:32.060Z,15.80
2022-12-14T18:12:59.646Z,17.80
2022-12-14T18:15:49.637Z,10.50
2022-12-14T18:18:22.639Z,18.80
2022-12-14T18:20:59.452Z,14.70
2022-12-14T18:23:28.625Z,12.70
2022-12-14T18:25:58.824Z,8.70
2022-12-14T18:28:26.911Z,11.90
2022-12-14T18:31:03.014Z,12.70
2022-12-14T18:33:31.253Z,13.80
2022-12-14T18:36:10.988Z,17.90
2022-12-14T18:38:39.277Z,13.60
2022-12-14T18:41:06.993Z,19.90
2022-12-14T18:43:41.723Z,16.60
2022-12-14T18:46:12.145Z,7.50
2022-12-14T18:48:40.601Z,15.70
2022-12-14T18:51:13.652Z,14.90
2022-12-14T18:53:42.422Z,16.90
2022-12-14T18:56:12.002Z,9.60
2022-12-14T18:58:41.162Z,18.70
2022-12-14T19:01:19.177Z,8.30
2022-12-14T19:03:47.032Z,7.10
2022-12-14T19:06:43.459Z,18.50
2022-12-14T19:09:05.446Z,18.20
2022-12-14T19:11:39.322Z,15.40
2022-12-14T19:14:07.664Z,17.20
2022-12-14T19:16:36.852Z,18.30
2022-12-14T19:19:04.894Z,16.80
2022-12-14T19:21:32.531Z,16.70
2022-12-14T19:24:01.586Z,22.30
2022-12-14T19:26:30.648Z,20.30
2022-12-14T19:29:01.170Z,16.70
2022-12-14T19:33:58.015Z,16.40
2022-12-14T19:36:26.013Z,14.70
2022-12-14T19:38:54.635Z,17.10
2022-12-14T19:41:22.526Z,20.60
2022-12-14T19:43:50.296Z,20.50
2022-12-14T19:46:18.480Z,20.40
2022-12-14T19:48:46.409Z,19.10
2022-12-14T19:51:15.479Z,21.80
2022-12-14T19:53:45.322Z,22.20
2022-12-14T19:56:17.195Z,19.00
2022-12-14T19:58:48.792Z,22.50
2022-12-14T20:01:17.318Z,26.70
2022-12-14T20:03:45.548Z,24.20
2022-12-14T20:06:16.163Z,24.50
2022-12-14T20:08:43.740Z,23.70
2022-12-14T20:11:11.586Z,25.90
2022-12-14T20:13:39.785Z,26.90
2022-12-14T20:16:07.748Z,24.70
2022-12-14T20:18:35.578Z,23.70
2022-12-14T20:21:06.047Z,23.60
2022-12-14T20:23:35.433Z,23.70
2022-12-14T20:26:20.745Z,28.80
2022-12-14T20:29:08.367Z,26.30
2022-12-14T20:31:36.941Z,21.40
2022-12-14T20:34:06.665Z,22.10
2022-12-14T20:36:35.738Z,21.10
2022-12-14T20:39:05.777Z,18.10
2022-12-14T20:41:36.372Z,19.20
2022-12-14T20:44:08.329Z,17.10
2022-12-14T20:46:41.632Z,19.70
2022-12-14T20:49:15.259Z,16.10
2022-12-14T20:51:44.429Z,16.30
2022-12-14T20:54:16.044Z,17.70
2022-12-14T20:56:44.532Z,14.80
2022-12-14T20:59:17.636Z,16.50
2022-12-14T21:01:50.117Z,15.00
2022-12-14T21:04:21.252Z,20.20
2022-12-14T21:06:49.116Z,21.20
2022-12-14T21:09:16.696Z,18.50
2022-12-14T21:11:47.249Z,18.90
2022-12-14T21:14:15.944Z,19.20
2022-12-14T21:16:44.035Z,13.20
2022-12-14T21:19:12.818Z,16.40
2022-12-14T21:21:41.878Z,16.50
2022-12-14T21:24:12.835Z,16.10
2022-12-14T21:26:45.790Z,19.60
2022-12-14T21:29:17.424Z,18.80
2022-12-14T21:31:47.133Z,18.30
2022-12-14T21:34:20.674Z,16.80
2022-12-14T21:36:48.515Z,18.60
2022-12-14T21:39:17.727Z,16.60
2022-12-14T21:41:46.512Z,17.40
2022-12-14T21:44:14.957Z,17.50
2022-12-14T21:46:43.192Z,19.10
2022-12-14T21:49:11.461Z,21.20
2022-12-14T21:51:39.500Z,22.90
2022-12-14T21:54:07.112Z,27.10
2022-12-14T21:56:37.041Z,35.90
2022-12-14T21:59:04.635Z,32.90
2022-12-14T22:01:32.462Z,24.60
2022-12-14T22:04:00.153Z,35.90
2022-12-14T22:06:27.777Z,35.50
2022-12-14T22:08:55.383Z,36.60
2022-12-14T22:11:23.043Z,41.50
2022-12-14T22:13:50.897Z,38.60
2022-12-14T22:16:18.834Z,38.70
2022-12-14T22:18:46.789Z,39.20
2022-12-14T22:21:14.795Z,36.40
2022-12-14T22:23:43.806Z,36.80
2022-12-14T22:26:11.768Z,35.20
2022-12-14T22:28:40.961Z,34.00
2022-12-14T22:31:08.626Z,42.20
2022-12-14T22:33:36.244Z,40.50
2022-12-14T22:36:04.119Z,35.70
2022-12-14T22:38:32.284Z,28.00
2022-12-14T22:41:06.802Z,23.50
2022-12-14T22:43:37.229Z,22.00
2022-12-14T22:48:36.321Z,20.60
2022-12-14T22:51:07.309Z,20.80
2022-12-14T22:53:34.955Z,22.90
2022-12-14T22:56:21.476Z,23.60
2022-12-14T22:58:54.265Z,25.00
2022-12-14T23:01:22.494Z,24.80
2022-12-14T23:04:00.024Z,26.10
2022-12-14T23:06:28.905Z,23.20
2022-12-14T23:08:56.966Z,22.60
2022-12-14T23:11:24.622Z,22.80
2022-12-14T23:13:52.246Z,23.00
2022-12-14T23:16:20.367Z,20.80
2022-12-14T23:18:48.166Z,26.30
2022-12-14T23:21:16.012Z,29.00
2022-12-14T23:23:45.584Z,29.80
2022-12-14T23:26:13.378Z,28.00
2022-12-14T23:28:41.068Z,28.20
2022-12-14T23:31:09.443Z,32.10
2022-12-14T23:33:37.697Z,30.90
2022-12-14T23:36:05.896Z,29.80
2022-12-14T23:38:33.530Z,32.50
2022-12-14T23:41:02.422Z,34.40
2022-12-14T23:43:30.511Z,34.40
2022-12-14T23:45:59.061Z,32.70
2022-12-14T23:48:27.025Z,30.90
2022-12-14T23:50:54.615Z,28.10
2022-12-14T23:53:22.322Z,26.80
2022-12-14T23:55:50.114Z,23.60
2022-12-14T23:58:18.007Z,20.10
